Time;durP1;ratioP1;P1;durP2;ratioP2;P2;SDS_P1;SDS_P2;PMS_P1;PMS_P2;Temp;Humidity;BMP_temperature;BMP_pressure;BME280_temperature;BME280_humidity;BME280_pressure;Samples;Min_cycle;Max_cycle;Signal;HPM_P1;HPM_P2
2021/03/10 00:01:47;;;;;;;2.30;1.17;;;;;;;;;;5066789;28;20050;-74
2021/03/10 00:04:12;;;;;;;2.27;1.23;;;;;;;;;;5041353;28;20060;-74
2021/03/10 00:06:37;;;;;;;3.07;1.40;;;;;;;;;;5036139;28;20132;-74
2021/03/10 00:09:03;;;;;;;3.27;1.30;;;;;;;;;;5060292;28;20115;-74
2021/03/10 00:11:28;;;;;;;3.07;1.40;;;;;;;;;;5052166;28;20039;-74
2021/03/10 00:13:53;;;;;;;2.00;1.13;;;;;;;;;;5037874;28;20123;-74
2021/03/10 00:16:19;;;;;;;2.60;1.20;;;;;;;;;;5056151;28;20157;-74
2021/03/10 00:18:44;;;;;;;2.63;1.30;;;;;;;;;;5055800;28;20070;-74
2021/03/10 00:21:09;;;;;;;2.17;1.20;;;;;;;;;;5039055;28;20510;-74
2021/03/10 00:23:35;;;;;;;3.47;1.33;;;;;;;;;;5051550;28;20571;-74
2021/03/10 00:26:00;;;;;;;2.40;1.07;;;;;;;;;;5053441;28;20061;-74
2021/03/10 00:28:25;;;;;;;2.77;1.30;;;;;;;;;;5036260;28;20108;-74
2021/03/10 00:30:51;;;;;;;3.23;1.50;;;;;;;;;;5036078;28;20116;-74
2021/03/10 00:33:16;;;;;;;2.97;1.30;;;;;;;;;;5053915;28;20106;-74
2021/03/10 00:35:42;;;;;;;2.80;1.40;;;;;;;;;;5038898;28;20077;-74
2021/03/10 00:38:07;;;;;;;2.70;1.40;;;;;;;;;;5071635;28;20478;-74
2021/03/10 00:40:32;;;;;;;2.97;1.40;;;;;;;;;;5054882;28;20083;-74
2021/03/10 00:42:57;;;;;;;2.60;1.33;;;;;;;;;;5052088;28;20056;-74
2021/03/10 00:45:23;;;;;;;2.50;1.23;;;;;;;;;;5035377;28;20061;-74
2021/03/10 00:47:48;;;;;;;3.20;1.20;;;;;;;;;;5035632;28;20066;-74
2021/03/10 00:50:18;;;;;;;3.07;1.40;;;;;;;;;;5035320;28;20079;-74
2021/03/10 00:52:43;;;;;;;2.90;1.02;;;;;;;;;;5019296;28;20476;-74
2021/03/10 00:55:09;;;;;;;2.63;1.40;;;;;;;;;;5052007;28;20033;-74
2021/03/10 00:57:35;;;;;;;2.30;1.10;;;;;;;;;;5053331;28;20036;-74
2021/03/10 01:00:00;;;;;;;2.43;1.30;;;;;;;;;;5053114;28;20521;-74
2021/03/10 01:02:26;;;;;;;3.03;1.27;;;;;;;;;;5034427;28;20057;-74
2021/03/10 01:04:51;;;;;;;2.53;1.30;;;;;;;;;;5035279;28;20100;-74
2021/03/10 01:07:16;;;;;;;2.70;1.33;;;;;;;;;;5051874;28;20029;-74
2021/03/10 01:09:42;;;;;;;2.60;1.30;;;;;;;;;;5054888;28;20403;-74
2021/03/10 01:12:08;;;;;;;3.17;1.33;;;;;;;;;;5038468;28;20060;-74
2021/03/10 01:14:33;;;;;;;2.33;1.20;;;;;;;;;;5054526;28;20055;-74
2021/03/10 01:16:58;;;;;;;2.40;1.13;;;;;;;;;;5038734;28;20081;-74
2021/03/10 01:19:23;;;;;;;2.93;1.17;;;;;;;;;;5054615;28;20614;-74
2021/03/10 01:21:49;;;;;;;2.43;1.27;;;;;;;;;;5054664;28;20127;-74
2021/03/10 01:24:14;;;;;;;2.20;1.33;;;;;;;;;;5039300;28;20069;-74
2021/03/10 01:26:39;;;;;;;2.70;1.13;;;;;;;;;;5053302;28;20068;-74
2021/03/10 01:29:05;;;;;;;2.53;1.40;;;;;;;;;;5026763;28;20040;-74
2021/03/10 01:31:30;;;;;;;1.97;1.17;;;;;;;;;;5020788;28;20052;-74
2021/03/10 01:33:56;;;;;;;3.07;1.30;;;;;;;;;;5018444;28;20128;-74
2021/03/10 01:36:21;;;;;;;3.00;1.30;;;;;;;;;;5022048;28;20071;-74
2021/03/10 01:38:46;;;;;;;3.13;1.33;;;;;;;;;;5055114;28;20107;-74
2021/03/10 01:41:13;;;;;;;2.13;1.23;;;;;;;;;;5056944;28;20051;-74
2021/03/10 01:43:38;;;;;;;3.17;1.40;;;;;;;;;;5062507;28;20028;-74
2021/03/10 01:46:04;;;;;;;3.13;1.30;;;;;;;;;;5050773;28;20033;-74
2021/03/10 01:48:29;;;;;;;2.53;1.30;;;;;;;;;;5051249;28;20102;-76
2021/03/10 01:50:54;;;;;;;2.90;1.30;;;;;;;;;;5051641;28;20060;-74
2021/03/10 01:53:20;;;;;;;2.37;1.10;;;;;;;;;;5035029;28;20112;-74
2021/03/10 01:55:45;;;;;;;2.17;1.10;;;;;;;;;;5043713;28;20475;-74
2021/03/10 01:58:10;;;;;;;2.10;1.30;;;;;;;;;;5018247;28;20032;-74
2021/03/10 02:00:36;;;;;;;2.60;1.30;;;;;;;;;;5049507;28;20514;-74
2021/03/10 02:03:01;;;;;;;2.60;1.20;;;;;;;;;;5051319;28;20068;-74
2021/03/10 02:05:26;;;;;;;3.80;1.50;;;;;;;;;;5036062;28;20116;-74
2021/03/10 02:08:25;;;;;;;1.90;1.10;;;;;;;;;;5068978;28;20032;-74
2021/03/10 02:11:10;;;;;;;2.60;1.20;;;;;;;;;;5050939;28;20124;-74
2021/03/10 02:13:51;;;;;;;2.45;1.30;;;;;;;;;;5068002;28;20033;-74
2021/03/10 02:16:29;;;;;;;3.10;1.20;;;;;;;;;;5057611;28;20039;-74
2021/03/10 02:19:04;;;;;;;2.42;1.20;;;;;;;;;;5055994;28;20039;-74
2021/03/10 02:21:34;;;;;;;2.78;1.20;;;;;;;;;;5040962;28;20045;-73
2021/03/10 02:24:33;;;;;;;2.55;1.23;;;;;;;;;;5074851;28;20398;-74
2021/03/10 02:27:31;;;;;;;1.90;1.10;;;;;;;;;;5061612;28;20119;-74
2021/03/10 02:30:08;;;;;;;2.10;1.20;;;;;;;;;;5054508;28;20545;-74
2021/03/10 02:32:34;;;;;;;2.63;1.20;;;;;;;;;;5054852;28;20048;-73
2021/03/10 02:35:01;;;;;;;2.47;1.20;;;;;;;;;;5061474;28;20135;-73
2021/03/10 02:37:26;;;;;;;2.30;1.38;;;;;;;;;;5029325;28;20056;-74
2021/03/10 02:39:51;;;;;;;2.37;1.17;;;;;;;;;;5054387;28;20067;-74
2021/03/10 02:42:17;;;;;;;2.13;1.10;;;;;;;;;;5037878;28;20491;-73
2021/03/10 02:44:42;;;;;;;2.37;1.40;;;;;;;;;;5037512;28;20040;-73
2021/03/10 02:47:07;;;;;;;2.27;1.10;;;;;;;;;;5055504;28;20112;-74
2021/03/10 02:49:33;;;;;;;2.17;1.27;;;;;;;;;;5073446;28;20024;-74
2021/03/10 02:51:58;;;;;;;2.67;1.20;;;;;;;;;;5057440;28;20539;-74
2021/03/10 02:54:23;;;;;;;2.50;1.03;;;;;;;;;;5057549;28;20467;-74
2021/03/10 02:56:49;;;;;;;1.57;0.93;;;;;;;;;;5042292;28;20462;-74
2021/03/10 02:59:14;;;;;;;2.40;1.20;;;;;;;;;;5067406;28;20025;-74
2021/03/10 03:01:40;;;;;;;3.20;1.20;;;;;;;;;;5047924;28;20124;-74
2021/03/10 03:04:06;;;;;;;2.27;1.20;;;;;;;;;;5057492;28;20446;-74
2021/03/10 03:06:31;;;;;;;2.38;1.20;;;;;;;;;;5031090;28;20147;-74
2021/03/10 03:08:56;;;;;;;3.43;1.30;;;;;;;;;;5070087;28;20124;-73
2021/03/10 03:11:22;;;;;;;2.77;1.30;;;;;;;;;;5050419;28;20562;-74
2021/03/10 03:13:47;;;;;;;2.63;1.20;;;;;;;;;;5057332;28;20033;-74
2021/03/10 03:16:13;;;;;;;1.87;1.00;;;;;;;;;;5036412;28;20083;-74
2021/03/10 03:18:38;;;;;;;2.63;1.17;;;;;;;;;;5037049;28;20128;-74
2021/03/10 03:21:04;;;;;;;3.20;1.30;;;;;;;;;;5036997;28;20116;-74
2021/03/10 03:23:29;;;;;;;1.97;0.97;;;;;;;;;;5048837;28;20479;-74
2021/03/10 03:25:55;;;;;;;2.20;1.10;;;;;;;;;;5032215;28;20541;-74
2021/03/10 03:28:21;;;;;;;2.23;1.47;;;;;;;;;;5037846;28;20391;-73
2021/03/10 03:30:47;;;;;;;3.13;1.30;;;;;;;;;;5020211;28;20045;-74
2021/03/10 03:33:14;;;;;;;2.53;1.30;;;;;;;;;;5020173;28;20052;-74
2021/03/10 03:35:40;;;;;;;1.85;1.00;;;;;;;;;;5027373;28;20061;-74
2021/03/10 03:38:05;;;;;;;2.70;1.27;;;;;;;;;;5020248;28;20467;-74
2021/03/10 03:40:31;;;;;;;2.60;1.20;;;;;;;;;;5072008;28;20028;-74
2021/03/10 03:42:56;;;;;;;1.93;1.10;;;;;;;;;;5056412;28;20032;-74
2021/03/10 03:45:22;;;;;;;1.83;1.03;;;;;;;;;;5045729;28;20079;-74
2021/03/10 03:47:51;;;;;;;1.60;0.90;;;;;;;;;;5070213;28;20025;-73
2021/03/10 03:50:17;;;;;;;2.40;1.10;;;;;;;;;;5059005;28;20035;-73
2021/03/10 03:52:42;;;;;;;2.17;1.20;;;;;;;;;;5056650;28;20036;-74
2021/03/10 03:55:08;;;;;;;2.00;1.13;;;;;;;;;;5052046;28;20142;-74
2021/03/10 03:57:33;;;;;;;1.70;1.10;;;;;;;;;;5051835;28;20037;-74
2021/03/10 03:59:59;;;;;;;1.93;1.10;;;;;;;;;;5056003;28;20076;-74
2021/03/10 04:02:24;;;;;;;1.90;1.10;;;;;;;;;;5036283;28;20056;-74
2021/03/10 04:04:49;;;;;;;2.30;1.10;;;;;;;;;;5069680;28;20129;-74
2021/03/10 04:07:15;;;;;;;1.87;1.10;;;;;;;;;;5045173;28;20060;-73
2021/03/10 04:09:40;;;;;;;2.10;1.10;;;;;;;;;;5054440;28;20115;-73
2021/03/10 04:12:06;;;;;;;1.77;1.10;;;;;;;;;;5036262;28;20132;-73
2021/03/10 04:14:31;;;;;;;2.13;1.20;;;;;;;;;;5019828;28;20471;-73
2021/03/10 04:16:57;;;;;;;2.73;1.30;;;;;;;;;;5069543;28;20099;-74
2021/03/10 04:19:22;;;;;;;1.87;1.20;;;;;;;;;;5035901;28;20075;-74
2021/03/10 04:21:47;;;;;;;2.03;0.93;;;;;;;;;;5035705;28;20037;-74
2021/03/10 04:24:13;;;;;;;2.23;1.17;;;;;;;;;;5036009;28;20166;-74
2021/03/10 04:26:38;;;;;;;2.70;1.27;;;;;;;;;;5042656;28;20123;-73
2021/03/10 04:29:03;;;;;;;1.80;1.00;;;;;;;;;;5035802;28;20037;-73
2021/03/10 04:31:29;;;;;;;3.00;1.20;;;;;;;;;;5019189;28;20106;-74
2021/03/10 04:33:54;;;;;;;3.00;1.13;;;;;;;;;;5049734;28;20116;-73
2021/03/10 04:36:19;;;;;;;2.20;1.27;;;;;;;;;;5053445;28;20120;-73
2021/03/10 04:38:45;;;;;;;2.50;1.10;;;;;;;;;;5018982;28;20485;-74
2021/03/10 04:41:10;;;;;;;2.47;1.20;;;;;;;;;;5019195;28;20045;-73
2021/03/10 04:43:35;;;;;;;2.33;1.20;;;;;;;;;;5045835;28;20080;-74
2021/03/10 04:46:01;;;;;;;2.57;1.10;;;;;;;;;;5042520;23;20489;-75
2021/03/10 04:48:26;;;;;;;3.00;1.33;;;;;;;;;;5029658;28;20044;-75
2021/03/10 04:50:52;;;;;;;1.73;1.00;;;;;;;;;;5067634;28;20032;-75
2021/03/10 04:53:17;;;;;;;2.07;1.00;;;;;;;;;;5072395;28;20033;-75
2021/03/10 04:55:42;;;;;;;1.83;1.00;;;;;;;;;;5028396;28;20080;-75
2021/03/10 04:58:08;;;;;;;2.00;1.10;;;;;;;;;;5044993;28;20053;-75
2021/03/10 05:00:33;;;;;;;2.10;1.17;;;;;;;;;;5054170;28;20063;-75
2021/03/10 05:02:58;;;;;;;2.00;1.23;;;;;;;;;;5073625;28;20477;-75
2021/03/10 05:05:24;;;;;;;2.07;1.10;;;;;;;;;;5060916;28;20044;-75
2021/03/10 05:07:49;;;;;;;2.10;1.10;;;;;;;;;;5061638;28;20087;-75
2021/03/10 05:10:15;;;;;;;2.17;1.27;;;;;;;;;;5061955;28;20028;-75
2021/03/10 05:12:40;;;;;;;2.00;1.23;;;;;;;;;;5069391;28;20059;-76
2021/03/10 05:15:06;;;;;;;1.93;1.20;;;;;;;;;;5074899;28;20028;-75
2021/03/10 05:17:32;;;;;;;1.97;1.13;;;;;;;;;;5078746;28;20036;-76
2021/03/10 05:19:57;;;;;;;2.20;1.13;;;;;;;;;;5076075;28;20274;-76
2021/03/10 05:22:26;;;;;;;2.33;1.20;;;;;;;;;;5055026;28;20043;-76
2021/03/10 05:24:51;;;;;;;2.28;1.15;;;;;;;;;;5070947;28;20033;-76
2021/03/10 05:27:16;;;;;;;2.10;1.20;;;;;;;;;;5058882;28;20143;-76
2021/03/10 05:29:43;;;;;;;2.03;1.10;;;;;;;;;;5058316;28;20095;-76
2021/03/10 05:32:09;;;;;;;2.60;1.30;;;;;;;;;;5040139;28;20037;-76
2021/03/10 05:34:34;;;;;;;2.27;1.13;;;;;;;;;;5062880;28;20463;-76
2021/03/10 05:37:00;;;;;;;2.20;1.20;;;;;;;;;;5032172;28;20040;-76
2021/03/10 05:39:25;;;;;;;2.03;1.20;;;;;;;;;;5018970;28;20025;-76
2021/03/10 05:41:50;;;;;;;2.83;1.30;;;;;;;;;;5016583;28;20052;-78
2021/03/10 05:44:16;;;;;;;2.27;1.20;;;;;;;;;;5045347;28;20108;-76
2021/03/10 05:46:41;;;;;;;2.87;1.30;;;;;;;;;;5016061;28;20141;-79
2021/03/10 05:49:06;;;;;;;2.37;1.20;;;;;;;;;;5006395;28;20063;-76
2021/03/10 05:51:32;;;;;;;2.13;1.20;;;;;;;;;;5037567;28;20090;-76
2021/03/10 05:53:58;;;;;;;2.10;1.15;;;;;;;;;;5059248;28;20035;-76
2021/03/10 05:56:24;;;;;;;1.90;1.07;;;;;;;;;;5049248;28;20035;-77
2021/03/10 05:58:54;;;;;;;1.92;1.20;;;;;;;;;;5023789;28;20264;-76
2021/03/10 06:01:19;;;;;;;2.60;1.27;;;;;;;;;;5031550;28;20025;-77
2021/03/10 06:03:52;;;;;;;2.17;1.03;;;;;;;;;;5021467;28;20025;-76
2021/03/10 06:06:18;;;;;;;2.08;1.27;;;;;;;;;;5059357;28;20106;-76
2021/03/10 06:08:43;;;;;;;3.50;1.40;;;;;;;;;;5079526;28;20111;-76
2021/03/10 06:11:08;;;;;;;2.83;1.33;;;;;;;;;;5050401;28;20036;-76
2021/03/10 06:13:34;;;;;;;2.37;1.20;;;;;;;;;;5027876;28;20044;-77
2021/03/10 06:16:00;;;;;;;2.27;1.27;;;;;;;;;;5049329;28;20131;-76
2021/03/10 06:18:29;;;;;;;;;;;;;;;;;;5019240;28;20399;-78
2021/03/10 06:21:08;;;;;;;2.72;1.40;;;;;;;;;;5033785;28;19913;-78
2021/03/10 06:23:34;;;;;;;2.65;1.20;;;;;;;;;;5041415;28;20029;-79
2021/03/10 06:26:00;;;;;;;2.80;1.17;;;;;;;;;;5043824;28;20044;-78
2021/03/10 06:28:38;;;;;;;2.93;1.33;;;;;;;;;;5028751;28;20028;-78
2021/03/10 06:31:35;;;;;;;3.45;1.40;;;;;;;;;;5048117;28;20120;-79
2021/03/10 06:34:10;;;;;;;2.25;1.23;;;;;;;;;;5029059;28;20045;-79
2021/03/10 06:36:49;;;;;;;2.47;1.23;;;;;;;;;;5043397;28;20025;-79
2021/03/10 06:39:30;;;;;;;2.30;1.30;;;;;;;;;;5044969;28;20037;-79
2021/03/10 06:41:55;;;;;;;3.40;1.45;;;;;;;;;;5025883;28;20133;-78
2021/03/10 06:44:25;;;;;;;2.13;1.20;;;;;;;;;;5025256;28;20033;-79
2021/03/10 06:46:57;;;;;;;3.25;1.25;;;;;;;;;;5042441;28;20033;-79
2021/03/10 06:49:32;;;;;;;2.47;1.20;;;;;;;;;;5042986;28;20040;-78
2021/03/10 06:51:59;;;;;;;3.53;1.40;;;;;;;;;;5020928;28;20119;-79
2021/03/10 06:54:25;;;;;;;3.10;1.45;;;;;;;;;;5004423;28;20580;-78
2021/03/10 06:57:13;;;;;;;2.20;1.33;;;;;;;;;;5021125;28;20468;-79
2021/03/10 06:59:48;;;;;;;2.10;1.25;;;;;;;;;;5024714;28;20506;-79
2021/03/10 07:02:34;;;;;;;2.67;1.33;;;;;;;;;;5007666;28;20513;-79
2021/03/10 07:05:00;;;;;;;2.83;1.50;;;;;;;;;;5023758;28;20044;-79
2021/03/10 07:07:29;;;;;;;2.97;1.45;;;;;;;;;;5007000;28;20037;-78
2021/03/10 07:09:55;;;;;;;2.17;1.30;;;;;;;;;;5006407;28;20115;-78
2021/03/10 07:12:22;;;;;;;3.73;1.50;;;;;;;;;;5022685;28;20031;-79
2021/03/10 07:14:47;;;;;;;2.92;1.40;;;;;;;;;;5008858;28;20029;-79
2021/03/10 07:17:14;;;;;;;3.10;1.60;;;;;;;;;;5008339;28;20040;-78
2021/03/10 07:19:39;;;;;;;3.60;1.50;;;;;;;;;;5023462;28;20091;-78
2021/03/10 07:22:06;;;;;;;2.47;1.37;;;;;;;;;;5007607;28;20041;-78
2021/03/10 07:25:07;;;;;;;3.25;1.60;;;;;;;;;;5007724;28;20495;-79
2021/03/10 07:27:36;;;;;;;2.40;1.30;;;;;;;;;;5062948;28;20048;-78
2021/03/10 07:30:02;;;;;;;4.53;1.30;;;;;;;;;;5022966;28;20033;-79
2021/03/10 07:32:28;;;;;;;2.80;1.50;;;;;;;;;;5039702;28;20511;-79
2021/03/10 07:35:00;;;;;;;2.73;1.40;;;;;;;;;;5039211;28;20322;-78
2021/03/10 07:37:26;;;;;;;2.65;1.50;;;;;;;;;;5022748;28;20032;-79
2021/03/10 07:39:51;;;;;;;3.83;1.40;;;;;;;;;;5024005;28;20538;-79
2021/03/10 07:42:17;;;;;;;4.57;1.40;;;;;;;;;;5039219;28;20072;-78
2021/03/10 07:44:43;;;;;;;3.30;1.40;;;;;;;;;;5039588;28;20029;-78
2021/03/10 07:47:09;;;;;;;3.47;1.47;;;;;;;;;;5026590;28;20102;-79
2021/03/10 07:49:35;;;;;;;;;;;;;;;;;;5018219;28;20040;-78
2021/03/10 07:52:04;;;;;;;4.30;1.50;;;;;;;;;;5022213;28;19912;-80
2021/03/10 07:54:29;;;;;;;4.15;1.60;;;;;;;;;;5056729;28;20043;-81
2021/03/10 07:57:11;;;;;;;3.53;1.63;;;;;;;;;;5038194;28;20438;-80
2021/03/10 07:59:51;;;;;;;3.35;1.50;;;;;;;;;;5054877;28;20032;-80
2021/03/10 08:02:16;;;;;;;2.75;1.55;;;;;;;;;;5039001;28;20032;-80
2021/03/10 08:04:41;;;;;;;3.33;1.70;;;;;;;;;;5039094;28;20120;-80
2021/03/10 08:07:07;;;;;;;3.20;1.60;;;;;;;;;;5055830;28;20041;-80
2021/03/10 08:09:32;;;;;;;3.00;1.60;;;;;;;;;;5039247;28;20527;-81
2021/03/10 08:12:08;;;;;;;3.70;1.50;;;;;;;;;;5049825;28;20563;-81
2021/03/10 08:14:40;;;;;;;3.30;1.60;;;;;;;;;;5037108;28;20124;-81
2021/03/10 08:17:06;;;;;;;3.33;1.45;;;;;;;;;;5035791;28;20481;-81
2021/03/10 08:19:32;;;;;;;2.58;1.42;;;;;;;;;;5030249;28;20036;-80
2021/03/10 08:21:58;;;;;;;3.47;1.60;;;;;;;;;;5038300;28;20396;-81
2021/03/10 08:24:24;;;;;;;2.80;1.50;;;;;;;;;;5055977;28;20858;-81
2021/03/10 08:26:54;;;;;;;4.72;1.63;;;;;;;;;;5047484;28;20040;-81
2021/03/10 08:29:19;;;;;;;3.35;1.60;;;;;;;;;;5041423;28;20086;-81
2021/03/10 08:31:47;;;;;;;2.63;1.30;;;;;;;;;;5040644;28;20036;-81
2021/03/10 08:34:13;;;;;;;2.85;1.38;;;;;;;;;;5043774;28;20025;-81
2021/03/10 08:36:38;;;;;;;4.23;1.50;;;;;;;;;;5037956;28;20098;-81
2021/03/10 08:39:22;;;;;;;3.30;1.60;;;;;;;;;;5031244;28;20060;-81
2021/03/10 08:41:54;;;;;;;2.85;1.52;;;;;;;;;;5025388;28;20032;-80
2021/03/10 08:44:22;;;;;;;3.38;1.40;;;;;;;;;;5042377;28;20024;-81
2021/03/10 08:46:47;;;;;;;2.10;1.38;;;;;;;;;;5056065;28;20036;-81
2021/03/10 08:49:23;;;;;;;3.17;1.60;;;;;;;;;;5057703;28;20093;-80
2021/03/10 08:51:49;;;;;;;2.60;1.50;;;;;;;;;;5021685;28;20082;-80
2021/03/10 08:54:16;;;;;;;3.22;1.50;;;;;;;;;;5023489;28;20037;-80
2021/03/10 08:56:49;;;;;;;2.40;1.50;;;;;;;;;;5001798;28;20087;-80
2021/03/10 08:59:14;;;;;;;2.28;1.40;;;;;;;;;;4986321;28;20120;-80
2021/03/10 09:01:47;;;;;;;2.83;1.50;;;;;;;;;;5019237;28;20526;-80
2021/03/10 09:04:20;;;;;;;3.38;1.45;;;;;;;;;;5035049;28;20086;-81
2021/03/10 09:06:46;;;;;;;3.53;1.38;;;;;;;;;;5001987;28;20087;-80
2021/03/10 09:09:11;;;;;;;3.37;1.50;;;;;;;;;;5008132;28;20044;-80
2021/03/10 09:11:36;;;;;;;2.80;1.50;;;;;;;;;;5020089;28;20057;-81
2021/03/10 09:14:02;;;;;;;2.80;1.43;;;;;;;;;;5022500;28;20058;-81
2021/03/10 09:16:27;;;;;;;3.33;1.50;;;;;;;;;;5038163;28;20115;-81
2021/03/10 09:18:59;;;;;;;3.50;1.60;;;;;;;;;;5015940;28;20034;-81
2021/03/10 09:21:27;;;;;;;2.67;1.38;;;;;;;;;;5017954;28;20571;-81
2021/03/10 09:24:01;;;;;;;2.75;1.42;;;;;;;;;;5019540;28;20104;-80
2021/03/10 09:26:39;;;;;;;4.05;1.50;;;;;;;;;;5040689;28;20040;-79
2021/03/10 09:29:04;;;;;;;3.60;1.50;;;;;;;;;;5026134;28;20037;-79
2021/03/10 09:31:30;;;;;;;2.47;1.47;;;;;;;;;;5020114;28;20120;-80
2021/03/10 09:34:05;;;;;;;4.80;1.67;;;;;;;;;;5039113;28;20036;-80
2021/03/10 09:36:31;;;;;;;3.40;1.63;;;;;;;;;;5039064;28;20036;-79
2021/03/10 09:38:56;;;;;;;4.03;1.53;;;;;;;;;;5045539;28;20032;-79
2021/03/10 09:41:25;;;;;;;2.83;1.50;;;;;;;;;;5045420;28;20131;-79
2021/03/10 09:44:05;;;;;;;3.60;1.50;;;;;;;;;;5045872;28;20483;-80
2021/03/10 09:46:43;;;;;;;3.08;1.50;;;;;;;;;;5046940;28;20473;-79
2021/03/10 09:49:09;;;;;;;2.80;1.38;;;;;;;;;;5041659;28;20534;-80
2021/03/10 09:51:47;;;;;;;3.23;1.50;;;;;;;;;;5024287;28;20127;-79
2021/03/10 09:54:12;;;;;;;3.40;1.70;;;;;;;;;;5051358;28;20086;-81
2021/03/10 09:56:48;;;;;;;3.10;1.40;;;;;;;;;;5044750;28;20115;-79
2021/03/10 09:59:13;;;;;;;4.97;1.50;;;;;;;;;;5044685;28;20051;-80
2021/03/10 10:01:46;;;;;;;3.43;1.53;;;;;;;;;;5045275;28;20479;-80
2021/03/10 10:04:12;;;;;;;2.92;1.50;;;;;;;;;;5036099;28;20039;-79
2021/03/10 10:06:51;;;;;;;3.15;1.40;;;;;;;;;;5029766;28;20184;-80
2021/03/10 10:09:16;;;;;;;2.78;1.50;;;;;;;;;;5021660;28;20038;-78
2021/03/10 10:11:41;;;;;;;3.33;1.60;;;;;;;;;;5056159;28;20056;-78
2021/03/10 10:14:07;;;;;;;3.13;1.60;;;;;;;;;;5036137;28;20076;-78
2021/03/10 10:16:36;;;;;;;4.03;1.53;;;;;;;;;;5061984;28;20036;-79
2021/03/10 10:19:01;;;;;;;3.35;1.40;;;;;;;;;;5036677;28;20042;-79
2021/03/10 10:21:27;;;;;;;4.37;1.30;;;;;;;;;;5038620;28;20140;-79
2021/03/10 10:23:52;;;;;;;3.43;1.50;;;;;;;;;;5020067;28;20125;-79
2021/03/10 10:26:17;;;;;;;3.77;1.50;;;;;;;;;;5017313;28;20063;-79
2021/03/10 10:28:43;;;;;;;3.10;1.60;;;;;;;;;;5029160;28;20483;-80
2021/03/10 10:31:08;;;;;;;3.80;1.50;;;;;;;;;;5079525;28;20032;-77
2021/03/10 10:33:33;;;;;;;3.73;1.47;;;;;;;;;;5044020;28;20096;-79
2021/03/10 10:35:59;;;;;;;2.70;1.43;;;;;;;;;;5066492;28;20033;-79
2021/03/10 10:38:24;;;;;;;2.37;1.50;;;;;;;;;;5048073;28;20115;-79
2021/03/10 10:40:50;;;;;;;2.33;1.30;;;;;;;;;;5044061;28;20048;-79
2021/03/10 10:43:15;;;;;;;3.07;1.50;;;;;;;;;;5061837;28;20472;-79
2021/03/10 10:45:40;;;;;;;3.27;1.70;;;;;;;;;;5031160;28;20045;-79
2021/03/10 10:48:06;;;;;;;3.37;1.50;;;;;;;;;;5047141;28;20024;-79
2021/03/10 10:50:31;;;;;;;2.70;1.53;;;;;;;;;;5043713;28;20036;-79
2021/03/10 10:52:57;;;;;;;2.50;1.30;;;;;;;;;;5044265;28;20028;-79
2021/03/10 10:55:22;;;;;;;2.35;1.20;;;;;;;;;;5057045;28;20063;-79
2021/03/10 10:57:53;;;;;;;4.13;1.40;;;;;;;;;;5024382;28;20037;-79
2021/03/10 11:00:21;;;;;;;3.03;1.27;;;;;;;;;;5016232;28;20040;-79
2021/03/10 11:02:47;;;;;;;2.83;1.48;;;;;;;;;;5019937;28;20053;-79
2021/03/10 11:05:15;;;;;;;2.33;1.40;;;;;;;;;;5006709;28;20040;-79
2021/03/10 11:07:40;;;;;;;2.88;1.60;;;;;;;;;;5017604;28;20060;-78
2021/03/10 11:10:06;;;;;;;3.27;1.63;;;;;;;;;;5019998;28;20030;-78
2021/03/10 11:14:59;;;;;;;2.25;1.30;;;;;;;;;;5035535;28;20685;-76
2021/03/10 11:17:25;;;;;;;2.50;1.50;;;;;;;;;;5018675;28;20025;-76
2021/03/10 11:19:50;;;;;;;3.07;1.60;;;;;;;;;;5022326;28;20139;-76
2021/03/10 11:22:15;;;;;;;2.67;1.40;;;;;;;;;;5016342;28;20038;-76
2021/03/10 11:24:41;;;;;;;3.70;1.50;;;;;;;;;;4984776;28;20069;-76
2021/03/10 11:27:06;;;;;;;3.03;1.40;;;;;;;;;;5000655;28;20120;-76
2021/03/10 11:29:32;;;;;;;3.67;1.70;;;;;;;;;;5017251;28;20025;-76
2021/03/10 11:31:57;;;;;;;4.80;1.80;;;;;;;;;;5000627;28;20122;-76
2021/03/10 11:34:22;;;;;;;3.67;1.70;;;;;;;;;;5018040;28;20484;-76
2021/03/10 11:36:49;;;;;;;3.90;1.63;;;;;;;;;;5001478;28;20072;-77
2021/03/10 11:39:14;;;;;;;4.32;1.80;;;;;;;;;;5002171;28;20128;-77
2021/03/10 11:41:40;;;;;;;4.27;1.50;;;;;;;;;;4987832;28;20599;-76
2021/03/10 11:44:05;;;;;;;3.13;1.60;;;;;;;;;;4984372;28;20283;-77
2021/03/10 11:46:31;;;;;;;3.70;1.70;;;;;;;;;;4999961;28;20022;-77
2021/03/10 11:48:56;;;;;;;3.43;1.53;;;;;;;;;;4991883;28;20037;-76
2021/03/10 11:51:21;;;;;;;2.53;1.23;;;;;;;;;;5012626;28;20087;-76
2021/03/10 11:53:47;;;;;;;5.43;1.60;;;;;;;;;;5022513;28;20044;-76
2021/03/10 11:56:13;;;;;;;3.77;1.63;;;;;;;;;;5020113;28;20547;-77
2021/03/10 11:58:39;;;;;;;4.43;1.48;;;;;;;;;;5019850;28;20029;-77
2021/03/10 12:01:04;;;;;;;3.13;1.60;;;;;;;;;;5020334;28;20029;-77
2021/03/10 12:03:30;;;;;;;2.77;1.37;;;;;;;;;;5018251;28;20484;-77
2021/03/10 12:05:56;;;;;;;3.77;1.60;;;;;;;;;;5019812;28;20463;-76
2021/03/10 12:08:21;;;;;;;3.70;1.50;;;;;;;;;;5019806;28;20029;-76
2021/03/10 12:10:46;;;;;;;3.43;1.40;;;;;;;;;;5019467;28;20036;-76
2021/03/10 12:13:12;;;;;;;1.63;1.10;;;;;;;;;;5014220;28;20072;-76
2021/03/10 12:15:37;;;;;;;2.23;1.20;;;;;;;;;;4968838;28;20038;-76
2021/03/10 12:18:03;;;;;;;4.00;1.50;;;;;;;;;;4980165;28;20049;-76
2021/03/10 12:20:29;;;;;;;5.57;1.50;;;;;;;;;;4963977;28;20554;-75
2021/03/10 12:22:54;;;;;;;4.10;1.50;;;;;;;;;;4980109;28;20120;-76
2021/03/10 12:25:19;;;;;;;3.10;1.27;;;;;;;;;;4963991;28;20073;-76
2021/03/10 12:27:45;;;;;;;3.43;1.60;;;;;;;;;;4980479;28;20058;-76
2021/03/10 12:30:10;;;;;;;3.43;1.40;;;;;;;;;;4980043;28;20029;-76
2021/03/10 12:32:36;;;;;;;5.17;1.60;;;;;;;;;;4989842;28;20128;-76
2021/03/10 12:35:02;;;;;;;4.00;1.50;;;;;;;;;;4973346;28;20397;-76
2021/03/10 12:37:27;;;;;;;3.17;1.40;;;;;;;;;;4980039;28;20088;-75
2021/03/10 12:39:52;;;;;;;3.10;1.40;;;;;;;;;;4985696;28;20116;-75
2021/03/10 12:42:18;;;;;;;3.33;1.50;;;;;;;;;;4985277;28;20053;-76
2021/03/10 12:44:44;;;;;;;3.57;1.50;;;;;;;;;;5008963;28;20034;-75
2021/03/10 12:47:09;;;;;;;2.33;1.40;;;;;;;;;;4979873;28;20034;-75
2021/03/10 12:49:35;;;;;;;2.87;1.20;;;;;;;;;;4990398;28;20033;-75
2021/03/10 12:52:00;;;;;;;4.07;1.33;;;;;;;;;;4970832;28;20041;-75
2021/03/10 12:54:26;;;;;;;3.37;1.20;;;;;;;;;;4983495;28;20396;-76
2021/03/10 12:56:51;;;;;;;3.47;1.13;;;;;;;;;;4983020;28;20057;-74
2021/03/10 12:59:17;;;;;;;3.17;1.60;;;;;;;;;;4990642;28;20026;-75
2021/03/10 13:01:42;;;;;;;2.87;1.10;;;;;;;;;;4964577;28;20038;-75
2021/03/10 13:04:07;;;;;;;2.70;1.30;;;;;;;;;;4996742;28;20044;-75
2021/03/10 13:06:33;;;;;;;3.13;1.50;;;;;;;;;;4955763;28;20128;-75
2021/03/10 13:08:58;;;;;;;2.90;1.40;;;;;;;;;;4973460;28;20041;-75
2021/03/10 13:11:23;;;;;;;2.53;1.40;;;;;;;;;;4976642;28;20069;-75
2021/03/10 13:13:49;;;;;;;4.87;1.50;;;;;;;;;;5014813;28;20075;-75
2021/03/10 13:16:14;;;;;;;4.03;1.60;;;;;;;;;;4983930;28;20124;-75
2021/03/10 13:18:39;;;;;;;2.13;1.30;;;;;;;;;;5015587;28;20123;-75
2021/03/10 13:21:05;;;;;;;3.63;1.70;;;;;;;;;;5007981;28;20075;-75
2021/03/10 13:23:30;;;;;;;3.00;1.60;;;;;;;;;;4999054;28;20069;-75
2021/03/10 13:25:56;;;;;;;2.67;1.50;;;;;;;;;;5000604;28;20475;-75
2021/03/10 13:28:21;;;;;;;2.97;1.40;;;;;;;;;;4993249;28;20038;-75
2021/03/10 13:30:46;;;;;;;2.63;1.50;;;;;;;;;;5024344;28;20029;-75
2021/03/10 13:33:12;;;;;;;2.83;1.40;;;;;;;;;;5002386;28;20075;-76
2021/03/10 13:35:40;;;;;;;3.00;1.43;;;;;;;;;;5018948;28;20418;-76
2021/03/10 13:38:06;;;;;;;2.78;1.50;;;;;;;;;;4994007;28;20515;-75
2021/03/10 13:40:32;;;;;;;3.78;1.38;;;;;;;;;;5001854;28;20385;-76
2021/03/10 13:42:57;;;;;;;2.43;1.27;;;;;;;;;;5003457;28;20060;-76
2021/03/10 13:45:22;;;;;;;2.60;1.20;;;;;;;;;;4998689;28;20107;-76
2021/03/10 13:47:48;;;;;;;2.30;1.40;;;;;;;;;;5001874;28;20035;-76
2021/03/10 13:50:13;;;;;;;2.90;1.50;;;;;;;;;;5009650;28;20496;-75
2021/03/10 13:52:38;;;;;;;3.67;1.40;;;;;;;;;;5030068;28;20488;-76
2021/03/10 13:55:04;;;;;;;2.50;1.07;;;;;;;;;;5018511;28;20052;-76
2021/03/10 13:57:36;;;;;;;2.58;1.40;;;;;;;;;;5008195;28;20037;-75
2021/03/10 14:00:02;;;;;;;3.75;1.58;;;;;;;;;;5010706;28;20492;-77
2021/03/10 14:02:28;;;;;;;2.83;1.38;;;;;;;;;;4982197;28;20064;-74
2021/03/10 14:04:53;;;;;;;4.30;1.40;;;;;;;;;;5021113;28;20063;-76
2021/03/10 14:07:18;;;;;;;3.33;1.37;;;;;;;;;;5018294;28;20056;-75
2021/03/10 14:09:44;;;;;;;3.57;1.60;;;;;;;;;;5017992;28;20046;-75
2021/03/10 14:12:10;;;;;;;3.40;1.30;;;;;;;;;;5055106;28;20053;-75
2021/03/10 14:14:35;;;;;;;2.25;1.27;;;;;;;;;;5034674;28;20115;-76
2021/03/10 14:17:00;;;;;;;2.93;1.33;;;;;;;;;;4985906;28;20500;-75
2021/03/10 14:19:26;;;;;;;2.67;1.50;;;;;;;;;;5002037;28;20176;-76
2021/03/10 14:21:51;;;;;;;2.83;1.47;;;;;;;;;;4985994;28;20120;-76
2021/03/10 14:24:16;;;;;;;2.27;1.20;;;;;;;;;;4985368;28;20173;-76
2021/03/10 14:26:42;;;;;;;2.50;1.40;;;;;;;;;;4982445;28;20581;-76
2021/03/10 14:29:07;;;;;;;3.57;1.50;;;;;;;;;;4966383;28;20464;-76
2021/03/10 14:31:32;;;;;;;3.20;1.40;;;;;;;;;;4982690;28;20445;-76
2021/03/10 14:33:58;;;;;;;2.33;1.23;;;;;;;;;;4982463;28;20061;-76
2021/03/10 14:36:23;;;;;;;1.97;1.20;;;;;;;;;;4998599;28;20117;-76
2021/03/10 14:38:48;;;;;;;3.50;1.30;;;;;;;;;;4982301;28;20038;-76
2021/03/10 14:41:14;;;;;;;3.70;1.30;;;;;;;;;;4998449;28;20034;-76
2021/03/10 14:43:40;;;;;;;3.00;1.30;;;;;;;;;;4966146;28;20446;-76
2021/03/10 14:46:05;;;;;;;3.87;1.50;;;;;;;;;;4982193;28;20112;-76